KAKH

Gastonia Municipal Airport

Gastonia, North Carolina, USA
METAR KAKH 172154Z AUTO 21006KT 10SM FEW042 31/22 A3007 RMK AO2 SLP176 T03110217
Observed Flight Rules
Aug-17 @ 21:54 UTC (41 minutes ago) Visual Flight Rules
Wind Visibility Clouds
210° at 6 knots 10 miles
  • Few at 4,200' AGL
Temperatures Readings
Current 31°C / 88°F
Dewpoint 22°C / 72°F
Humidity 59%
Altimeter 30.07" Hg
Pressure 1017.6 hPa
Elevation 243
METAR KAKH 172154Z AUTO 21006KT 10SM FEW042 31/22 A3007 RMK AO2 SLP176 T03110217
Observed Flight Rules
Aug-17 @ 21:54 UTC
(41 minutes ago)
VFR
Wind Visibility
210° at 6 knots 10 miles
Clouds
  • Few at 4,200' AGL
Temperature Dewpoint
31°C / 88°F 22°C / 72°F
Humidity Altimeter Pressure
59% 30.07" Hg 1017.6 hPa